Time;durP1;ratioP1;P1;durP2;ratioP2;P2;SDS_P1;SDS_P2;PMS_P1;PMS_P2;Temp;Humidity;BMP_temperature;BMP_pressure;BME280_temperature;BME280_humidity;BME280_pressure;Samples;Min_cycle;Max_cycle;Signal;HPM_P1;HPM_P2
2022/04/27 00:00:20;;;;;;;;;;;;;;;4.81;100.00;100293.03;5091596;28;19924;-76
2022/04/27 00:02:45;;;;;;;;;;;;;;;4.79;100.00;100280.75;5076495;28;19959;-73
2022/04/27 00:05:11;;;;;;;;;;;;;;;4.77;100.00;100282.38;5098555;27;19926;-77
2022/04/27 00:07:36;;;;;;;;;;;;;;;4.76;100.00;100268.44;5097408;27;19925;-76
2022/04/27 00:10:01;;;;;;;;;;;;;;;4.71;100.00;100262.13;5082455;28;19942;-73
2022/04/27 00:12:28;;;;;;;;;;;;;;;4.68;100.00;100256.75;5092516;28;20437;-77
2022/04/27 00:14:54;;;;;;;;;;;;;;;4.67;100.00;100253.22;5112431;27;19924;-73
2022/04/27 00:17:20;;;;;;;;;;;;;;;4.70;100.00;100234.22;5092962;28;19972;-76
2022/04/27 00:19:50;;;;;;;;;;;;;;;4.66;100.00;100227.06;5083920;28;20441;-74
2022/04/27 00:22:15;;;;;;;;;;;;;;;4.67;100.00;100218.44;5091930;28;19916;-75
2022/04/27 00:24:40;;;;;;;;;;;;;;;4.66;100.00;100209.72;5094060;27;20045;-74
2022/04/27 00:27:06;;;;;;;;;;;;;;;4.65;100.00;100209.66;5084514;28;20308;-75
2022/04/27 00:29:31;;;;;;;;;;;;;;;4.62;100.00;100202.56;5089425;28;20387;-75
2022/04/27 00:31:57;;;;;;;;;;;;;;;4.54;100.00;100197.78;5089032;28;20303;-75
2022/04/27 00:34:25;;;;;;;;;;;;;;;4.51;100.00;100193.31;5090056;28;19920;-74
2022/04/27 00:36:50;;;;;;;;;;;;;;;4.47;100.00;100201.78;5088119;28;19924;-74
2022/04/27 00:39:17;;;;;;;;;;;;;;;4.49;100.00;100187.16;5090095;28;20352;-73
2022/04/27 00:41:58;;;;;;;;;;;;;;;4.45;100.00;100188.69;5088083;28;19959;-74
2022/04/27 00:44:28;;;;;;;;;;;;;;;4.48;100.00;100174.91;5090201;28;19926;-74
2022/04/27 00:46:53;;;;;;;;;;;;;;;4.44;100.00;100163.44;5088427;28;19954;-73
2022/04/27 00:49:19;;;;;;;;;;;;;;;4.46;100.00;100168.75;5089531;28;19920;-73
2022/04/27 00:51:44;;;;;;;;;;;;;;;4.46;100.00;100151.38;5089443;28;19924;-74
2022/04/27 00:54:12;;;;;;;;;;;;;;;4.44;100.00;100149.50;5083710;28;19921;-73
2022/04/27 00:56:38;;;;;;;;;;;;;;;4.40;100.00;100148.47;5099436;28;19946;-73
2022/04/27 00:59:03;;;;;;;;;;;;;;;4.36;100.00;100154.34;5103030;28;20392;-74
2022/04/27 01:01:30;;;;;;;;;;;;;;;4.41;100.00;100145.06;5086260;28;19927;-74
2022/04/27 01:03:56;;;;;;;;;;;;;;;4.38;100.00;100136.16;5072849;28;19920;-73
2022/04/27 01:06:23;;;;;;;;;;;;;;;4.40;100.00;100131.94;5105691;28;19916;-74
2022/04/27 01:08:48;;;;;;;;;;;;;;;4.38;100.00;100123.13;5089446;28;20038;-77
2022/04/27 01:11:14;;;;;;;;;;;;;;;4.39;100.00;100114.50;5087759;28;20447;-75
2022/04/27 01:13:40;;;;;;;;;;;;;;;4.41;100.00;100112.84;5088994;28;19927;-75
2022/04/27 01:16:06;;;;;;;;;;;;;;;4.36;100.00;100107.41;5073942;28;19921;-74
2022/04/27 01:18:31;;;;;;;;;;;;;;;4.31;100.00;100106.31;5086912;28;19974;-76
2022/04/27 01:20:57;;;;;;;;;;;;;;;4.34;100.00;100101.25;5090979;28;19920;-76
2022/04/27 01:23:22;;;;;;;;;;;;;;;4.37;100.00;100095.28;5091968;28;19920;-76
2022/04/27 01:25:48;;;;;;;;;;;;;;;4.32;100.00;100093.34;5077538;28;19920;-78
2022/04/27 01:28:15;;;;;;;;;;;;;;;4.32;100.00;100075.09;5078992;28;20019;-75
2022/04/27 01:30:40;;;;;;;;;;;;;;;4.34;100.00;100074.28;5089235;28;19931;-76
2022/04/27 01:33:08;;;;;;;;;;;;;;;4.24;100.00;100072.94;5090204;28;19943;-75
2022/04/27 01:35:34;;;;;;;;;;;;;;;4.15;100.00;100081.22;5079929;28;19928;-74
2022/04/27 01:38:03;;;;;;;;;;;;;;;4.14;100.00;100076.81;5071928;28;19917;-73
2022/04/27 01:40:28;;;;;;;;;;;;;;;4.10;100.00;100078.38;5072943;28;20025;-73
2022/04/27 01:42:53;;;;;;;;;;;;;;;4.14;100.00;100079.41;5091769;28;20332;-74
2022/04/27 01:45:18;;;;;;;;;;;;;;;4.11;100.00;100079.25;5082431;28;19920;-75
2022/04/27 01:47:45;;;;;;;;;;;;;;;4.05;100.00;100082.44;5065827;28;20023;-75
2022/04/27 01:50:10;;;;;;;;;;;;;;;4.03;100.00;100088.41;5085870;28;20376;-76
2022/04/27 01:55:21;;;;;;;;;;;;;;;4.05;100.00;100086.78;5080548;28;19927;-76
2022/04/27 01:57:46;;;;;;;;;;;;;;;4.07;100.00;100086.03;5069963;28;19917;-78
2022/04/27 02:00:13;;;;;;;;;;;;;;;4.07;100.00;100087.72;5085752;28;20287;-74
2022/04/27 02:02:38;;;;;;;;;;;;;;;4.06;100.00;100091.19;5086282;28;20368;-75
2022/04/27 02:05:04;;;;;;;;;;;;;;;4.04;100.00;100098.91;5075200;28;20268;-75
2022/04/27 02:07:29;;;;;;;;;;;;;;;4.03;100.00;100093.63;5092464;28;19943;-75
2022/04/27 02:09:55;;;;;;;;;;;;;;;4.07;100.00;100092.94;5091543;28;19970;-75
2022/04/27 02:12:20;;;;;;;;;;;;;;;4.10;100.00;100094.00;5092487;28;20388;-75
2022/04/27 02:14:45;;;;;;;;;;;;;;;4.06;100.00;100097.28;5090567;28;20014;-75
2022/04/27 02:17:12;;;;;;;;;;;;;;;4.06;100.00;100101.59;5088993;28;20364;-74
2022/04/27 02:19:37;;;;;;;;;;;;;;;4.07;100.00;100095.53;5075206;28;19920;-77
2022/04/27 02:22:03;;;;;;;;;;;;;;;4.07;100.00;100099.06;5092975;28;19985;-77
2022/04/27 02:24:36;;;;;;;;;;;;;;;4.07;100.00;100095.53;5090774;28;19920;-77
2022/04/27 02:27:02;;;;;;;;;;;;;;;4.06;100.00;100101.59;5093108;28;20086;-77
2022/04/27 02:29:28;;;;;;;;;;;;;;;4.10;100.00;100099.22;5094004;28;20024;-75
2022/04/27 02:31:53;;;;;;;;;;;;;;;4.07;100.00;100108.56;5093025;28;19920;-77
2022/04/27 02:34:19;;;;;;;;;;;;;;;4.02;100.00;100104.84;5093215;28;19916;-75
2022/04/27 02:36:44;;;;;;;;;;;;;;;3.88;100.00;100118.06;5092833;28;20058;-75
2022/04/27 02:39:10;;;;;;;;;;;;;;;3.82;100.00;100122.97;5092814;28;19920;-77
2022/04/27 02:41:35;;;;;;;;;;;;;;;3.84;100.00;100128.25;5092731;28;20383;-77
2022/04/27 02:44:01;;;;;;;;;;;;;;;3.83;100.00;100139.50;5092794;28;19927;-76
2022/04/27 02:46:28;;;;;;;;;;;;;;;3.78;100.00;100141.88;5090523;28;19928;-77
2022/04/27 02:51:49;;;;;;;;;;;;;;;3.75;100.00;100158.22;5094272;28;20292;-77
2022/04/27 02:54:16;;;;;;;;;;;;;;;3.74;100.00;100171.16;5076919;28;19928;-78
2022/04/27 02:56:42;;;;;;;;;;;;;;;3.71;100.00;100184.94;5092092;28;19973;-76
2022/04/27 02:59:07;;;;;;;;;;;;;;;3.69;100.00;100203.88;5083476;28;20497;-78
2022/04/27 03:01:33;;;;;;;;;;;;;;;3.69;100.00;100211.69;5073282;28;20118;-76
2022/04/27 03:04:01;;;;;;;;;;;;;;;3.66;100.00;100224.53;5085430;28;19920;-80
2022/04/27 03:06:26;;;;;;;;;;;;;;;3.67;100.00;100236.75;5087970;28;19916;-77
2022/04/27 03:08:52;;;;;;;;;;;;;;;3.68;100.00;100254.16;5092790;28;20330;-78
2022/04/27 03:11:17;;;;;;;;;;;;;;;3.70;100.00;100256.03;5092609;28;19970;-77
2022/04/27 03:13:42;;;;;;;;;;;;;;;3.69;100.00;100266.38;5087033;28;19920;-76
2022/04/27 03:16:08;;;;;;;;;;;;;;;3.65;100.00;100280.03;5082862;28;19926;-75
2022/04/27 03:18:33;;;;;;;;;;;;;;;3.69;100.00;100297.63;5079848;28;19917;-77
2022/04/27 03:20:58;;;;;;;;;;;;;;;3.70;100.00;100312.44;5073561;28;19920;-77
2022/04/27 03:23:24;;;;;;;;;;;;;;;3.73;100.00;100330.84;5073651;28;19924;-77
2022/04/27 03:25:49;;;;;;;;;;;;;;;3.76;100.00;100351.84;5087045;28;19924;-76
2022/04/27 03:28:15;;;;;;;;;;;;;;;3.67;100.00;100378.25;5096224;28;19951;-77
2022/04/27 03:30:40;;;;;;;;;;;;;;;3.59;100.00;100383.03;5089208;28;19928;-77
2022/04/27 03:33:05;;;;;;;;;;;;;;;3.58;100.00;100378.63;5087175;28;19931;-74
2022/04/27 03:35:31;;;;;;;;;;;;;;;3.53;100.00;100390.50;5117583;27;19964;-77
2022/04/27 03:37:58;;;;;;;;;;;;;;;3.49;100.00;100385.91;5099127;27;20297;-77
2022/04/27 03:40:25;;;;;;;;;;;;;;;3.44;100.00;100384.78;5097293;28;19920;-77
2022/04/27 03:42:50;;;;;;;;;;;;;;;3.42;100.00;100386.41;5113937;28;19916;-77
2022/04/27 03:45:15;;;;;;;;;;;;;;;3.42;100.00;100378.59;5097648;28;19927;-77
2022/04/27 03:47:41;;;;;;;;;;;;;;;3.44;100.00;100371.75;5076278;28;19917;-77
2022/04/27 03:50:06;;;;;;;;;;;;;;;3.44;100.00;100370.88;5091469;28;20048;-77
2022/04/27 03:52:31;;;;;;;;;;;;;;;3.46;100.00;100366.63;5112987;27;20275;-75
2022/04/27 03:55:00;;;;;;;;;;;;;;;3.42;100.00;100362.97;5098305;28;20524;-75
2022/04/27 03:57:25;;;;;;;;;;;;;;;3.24;100.00;100355.88;5113050;28;19923;-77
2022/04/27 03:59:51;;;;;;;;;;;;;;;3.16;100.00;100357.16;5082769;28;19920;-75
2022/04/27 04:02:16;;;;;;;;;;;;;;;3.21;100.00;100352.22;5090321;28;19916;-76
2022/04/27 04:04:42;;;;;;;;;;;;;;;3.21;100.00;100355.72;5082751;28;20292;-73
2022/04/27 04:07:07;;;;;;;;;;;;;;;3.25;100.00;100349.00;5093199;28;19928;-74
2022/04/27 04:09:33;;;;;;;;;;;;;;;3.29;100.00;100339.66;5095121;28;19965;-75
2022/04/27 04:11:58;;;;;;;;;;;;;;;3.35;100.00;100332.19;5092747;28;19923;-75
2022/04/27 04:14:23;;;;;;;;;;;;;;;3.34;100.00;100319.97;5111331;27;19966;-75
2022/04/27 04:16:49;;;;;;;;;;;;;;;3.36;100.00;100307.97;5092853;28;19945;-74
2022/04/27 04:19:17;;;;;;;;;;;;;;;3.37;100.00;100302.84;5086169;28;19988;-76
2022/04/27 04:21:42;;;;;;;;;;;;;;;3.36;100.00;100292.34;5085231;28;19952;-76
2022/04/27 04:24:10;;;;;;;;;;;;;;;3.34;100.00;100288.75;5080175;28;19963;-76
2022/04/27 04:29:19;;;;;;;;;;;;;;;3.29;100.00;100269.38;5111436;28;20006;-76
2022/04/27 04:31:45;;;;;;;;;;;;;;;3.36;100.00;100274.13;5072929;28;20015;-75
2022/04/27 04:34:12;;;;;;;;;;;;;;;3.39;100.00;100259.56;5099254;28;20051;-76
2022/04/27 04:36:37;;;;;;;;;;;;;;;3.47;100.00;100244.38;5091850;28;19972;-77
2022/04/27 04:39:03;;;;;;;;;;;;;;;3.48;100.00;100238.38;5063935;28;19928;-77
2022/04/27 04:41:29;;;;;;;;;;;;;;;3.50;100.00;100230.66;5081483;28;20372;-74
2022/04/27 04:43:55;;;;;;;;;;;;;;;3.58;100.00;100222.41;5098165;28;20060;-75
2022/04/27 04:46:20;;;;;;;;;;;;;;;3.69;100.00;100209.09;5092673;28;19920;-76
2022/04/27 04:48:46;;;;;;;;;;;;;;;4.41;100.00;100157.16;5078966;28;19919;-77
2022/04/27 04:51:11;;;;;;;;;;;;;;;5.51;100.00;100079.66;5095085;28;20012;-78
2022/04/27 04:53:37;;;;;;;;;;;;;;;5.95;100.00;100036.25;5091615;28;19932;-75
2022/04/27 04:56:04;;;;;;;;;;;;;;;5.76;100.00;100076.38;5114470;28;19919;-74
2022/04/27 04:58:29;;;;;;;;;;;;;;;5.51;100.00;100116.22;5093984;28;19920;-77
2022/04/27 05:00:54;;;;;;;;;;;;;;;5.61;100.00;100123.66;5092721;28;19969;-76
2022/04/27 05:03:20;;;;;;;;;;;;;;;5.80;100.00;100129.69;5089853;28;19931;-77
2022/04/27 05:05:45;;;;;;;;;;;;;;;6.21;100.00;100118.38;5074004;28;20345;-74
2022/04/27 05:08:11;;;;;;;;;;;;;;;7.02;100.00;100083.22;5093951;28;19916;-75
2022/04/27 05:10:36;;;;;;;;;;;;;;;8.31;100.00;100007.28;5094138;28;19942;-76
2022/04/27 05:13:03;;;;;;;;;;;;;;;9.47;100.00;99966.91;5091860;28;19920;-76
2022/04/27 05:15:28;;;;;;;;;;;;;;;10.31;100.00;99960.19;5087137;28;19958;-76
2022/04/27 05:17:53;;;;;;;;;;;;;;;11.23;100.00;99998.19;5085207;28;20306;-77
2022/04/27 05:20:19;;;;;;;;;;;;;;;11.74;100.00;100090.53;5111409;28;19945;-76
2022/04/27 05:22:44;;;;;;;;;;;;;;;11.70;100.00;100274.22;5088575;28;20381;-76
2022/04/27 05:25:10;;;;;;;;;;;;;;;11.62;100.00;100436.63;5111711;28;20366;-74
2022/04/27 05:27:36;;;;;;;;;;;;;;;11.36;100.00;100597.69;5114039;28;19919;-74
2022/04/27 05:32:46;;;;;;;;;;;;;;;10.91;100.00;100795.69;5104530;28;19951;-73
2022/04/27 05:35:11;;;;;;;;;;;;;;;11.99;100.00;100823.75;5093454;28;19919;-78
2022/04/27 05:37:37;;;;;;;;;;;;;;;12.72;100.00;100924.44;5074271;28;19927;-75
2022/04/27 05:40:02;;;;;;;;;;;;;;;13.02;100.00;101034.53;5080445;28;19921;-77
2022/04/27 05:42:28;;;;;;;;;;;;;;;13.09;100.00;101096.38;5087467;28;19973;-77
2022/04/27 05:44:55;;;;;;;;;;;;;;;13.90;100.00;101141.91;5099013;28;20019;-77
2022/04/27 05:47:23;;;;;;;;;;;;;;;15.04;100.00;101278.25;5094026;28;19950;-80
2022/04/27 05:49:50;;;;;;;;;;;;;;;15.90;100.00;101393.50;5096848;28;19945;-76
2022/04/27 05:52:15;;;;;;;;;;;;;;;16.67;100.00;101594.59;5115483;28;19916;-78
2022/04/27 05:54:42;;;;;;;;;;;;;;;16.10;100.00;101749.97;5092916;28;20318;-77
2022/04/27 05:57:08;;;;;;;;;;;;;;;15.79;100.00;102266.97;5075930;28;19942;-78
2022/04/27 05:59:34;;;;;;;;;;;;;;;16.39;100.00;102422.41;5096722;28;19928;-78
2022/04/27 06:01:59;;;;;;;;;;;;;;;16.59;100.00;102480.72;5098176;28;20365;-79
2022/04/27 06:04:26;;;;;;;;;;;;;;;17.26;100.00;102505.31;5078152;28;19924;-74
2022/04/27 06:06:52;;;;;;;;;;;;;;;16.80;100.00;102524.06;5082277;28;19924;-75
2022/04/27 06:09:17;;;;;;;;;;;;;;;17.05;100.00;102517.03;5114469;27;19920;-73
2022/04/27 06:11:43;;;;;;;;;;;;;;;16.14;100.00;102538.41;5080581;28;19920;-77
2022/04/27 06:14:08;;;;;;;;;;;;;;;15.62;100.00;102528.28;5109748;28;19978;-74
2022/04/27 06:16:34;;;;;;;;;;;;;;;14.75;100.00;102514.75;5093491;28;19915;-75
2022/04/27 06:19:00;;;;;;;;;;;;;;;15.10;100.00;102443.78;5093103;28;19916;-75
2022/04/27 06:21:31;;;;;;;;;;;;;;;15.02;100.00;102438.13;5075999;28;20007;-75
2022/04/27 06:23:56;;;;;;;;;;;;;;;14.68;100.00;102437.59;5075722;28;20425;-75
2022/04/27 06:26:21;;;;;;;;;;;;;;;14.52;100.00;102470.41;5075478;28;19916;-74
2022/04/27 06:28:47;;;;;;;;;;;;;;;14.15;100.00;102471.38;5077884;28;19916;-75
2022/04/27 06:31:12;;;;;;;;;;;;;;;14.68;100.00;102464.09;5096105;28;19916;-76
2022/04/27 06:33:37;;;;;;;;;;;;;;;14.85;100.00;102490.44;5095102;28;19916;-75
2022/04/27 06:36:03;;;;;;;;;;;;;;;15.24;100.00;102495.69;5095857;28;20322;-75
2022/04/27 06:38:28;;;;;;;;;;;;;;;13.03;100.00;102487.84;5094528;28;19966;-76
2022/04/27 06:40:54;;;;;;;;;;;;;;;12.97;100.00;102402.00;5113329;28;20016;-75
2022/04/27 06:43:20;;;;;;;;;;;;;;;12.47;100.00;102335.16;5095660;28;20605;-75
2022/04/27 06:45:45;;;;;;;;;;;;;;;12.50;100.00;102254.28;5093341;28;19915;-74
2022/04/27 06:48:11;;;;;;;;;;;;;;;12.12;100.00;102144.06;5095641;28;19967;-73
2022/04/27 06:50:37;;;;;;;;;;;;;;;11.30;100.00;102039.63;5095146;28;19919;-76
2022/04/27 06:53:02;;;;;;;;;;;;;;;11.47;100.00;101917.44;5094696;28;19912;-73
2022/04/27 06:55:27;;;;;;;;;;;;;;;11.50;100.00;101827.91;5078829;28;19920;-76
2022/04/27 06:57:53;;;;;;;;;;;;;;;11.27;100.00;101776.69;5096115;28;20253;-76
2022/04/27 07:00:19;;;;;;;;;;;;;;;11.03;100.00;101715.81;5113574;28;19916;-77
2022/04/27 07:02:47;;;;;;;;;;;;;;;11.14;100.00;101640.78;5095414;28;19920;-78
2022/04/27 07:05:17;;;;;;;;;;;;;;;11.50;100.00;101601.06;5094710;28;19919;-77
2022/04/27 07:07:45;;;;;;;;;;;;;;;11.30;100.00;101638.84;5075946;28;19916;-75
2022/04/27 07:10:11;;;;;;;;;;;;;;;11.31;100.00;101644.19;5076153;28;19970;-76
2022/04/27 07:12:37;;;;;;;;;;;;;;;11.53;100.00;101653.06;5076029;28;20430;-79
2022/04/27 07:15:04;;;;;;;;;;;;;;;11.64;100.00;101737.97;5113920;28;19959;-75
2022/04/27 07:17:30;;;;;;;;;;;;;;;11.24;100.00;101833.66;5095912;28;19912;-78
2022/04/27 07:19:56;;;;;;;;;;;;;;;12.01;100.00;101888.38;5095616;28;19915;-76
2022/04/27 07:22:21;;;;;;;;;;;;;;;12.46;100.00;102001.38;5094736;28;20349;-75
2022/04/27 07:24:49;;;;;;;;;;;;;;;13.11;100.00;102152.38;5089839;28;20390;-76
2022/04/27 07:27:14;;;;;;;;;;;;;;;13.07;100.00;102195.38;5076122;28;19920;-76
2022/04/27 07:29:39;;;;;;;;;;;;;;;12.87;100.00;102311.66;5088069;28;19919;-75
2022/04/27 07:32:05;;;;;;;;;;;;;;;13.33;100.00;102322.66;5096414;28;19920;-78
2022/04/27 07:34:32;;;;;;;;;;;;;;;13.59;100.00;102314.25;5097440;28;19919;-75
2022/04/27 07:36:58;;;;;;;;;;;;;;;13.19;100.00;102312.34;5100600;28;19923;-76
2022/04/27 07:39:26;;;;;;;;;;;;;;;13.05;100.00;102295.81;5118583;28;19919;-75
2022/04/27 07:41:51;;;;;;;;;;;;;;;12.84;100.00;102241.88;5097797;28;19916;-74
2022/04/27 07:44:18;;;;;;;;;;;;;;;12.55;100.00;102318.88;5095637;28;20011;-76
2022/04/27 07:46:47;;;;;;;;;;;;;;;12.39;100.00;102359.41;5081468;28;19930;-75
2022/04/27 07:49:16;;;;;;;;;;;;;;;12.14;100.00;102391.53;5101097;28;19920;-74
2022/04/27 07:51:41;;;;;;;;;;;;;;;12.02;100.00;102423.50;5107573;28;19947;-76
2022/04/27 07:54:06;;;;;;;;;;;;;;;11.61;100.00;102389.47;5100924;28;19923;-77
2022/04/27 07:56:32;;;;;;;;;;;;;;;11.95;100.00;102400.19;5097188;28;20237;-77
2022/04/27 07:58:57;;;;;;;;;;;;;;;12.05;100.00;102477.28;5111872;27;19970;-77
2022/04/27 08:01:22;;;;;;;;;;;;;;;11.56;100.00;102507.94;5095118;28;20540;-77
2022/04/27 08:03:48;;;;;;;;;;;;;;;11.46;100.00;102556.56;5111384;28;20006;-76
2022/04/27 08:06:13;;;;;;;;;;;;;;;11.58;100.00;102560.78;5089268;28;20364;-77
2022/04/27 08:08:41;;;;;;;;;;;;;;;11.34;100.00;102573.41;5075331;28;20128;-75
2022/04/27 08:11:07;;;;;;;;;;;;;;;11.44;100.00;102557.31;5064839;28;19927;-77
2022/04/27 08:13:34;;;;;;;;;;;;;;;10.95;100.00;102524.53;5094190;28;20034;-77
2022/04/27 08:16:00;;;;;;;;;;;;;;;11.12;100.00;102474.56;5074779;28;19916;-79
2022/04/27 08:18:25;;;;;;;;;;;;;;;11.26;100.00;102480.66;5059152;28;19926;-78
2022/04/27 08:23:36;;;;;;;;;;;;;;;11.52;100.00;102500.66;5108909;28;20299;-77
2022/04/27 08:26:03;;;;;;;;;;;;;;;11.19;100.00;102531.22;5109210;27;20011;-76
2022/04/27 08:28:28;;;;;;;;;;;;;;;11.02;100.00;102580.28;5110858;27;19935;-76
2022/04/27 08:30:54;;;;;;;;;;;;;;;11.12;100.00;102591.50;5076673;28;19920;-77
2022/04/27 08:33:20;;;;;;;;;;;;;;;11.22;100.00;102573.59;5092680;28;19919;-76
2022/04/27 08:35:46;;;;;;;;;;;;;;;11.14;100.00;102571.38;5094496;28;19980;-77
2022/04/27 08:38:11;;;;;;;;;;;;;;;11.27;100.00;102551.03;5089582;28;19942;-75
2022/04/27 08:40:44;;;;;;;;;;;;;;;11.32;100.00;102587.41;5074120;28;19920;-76
2022/04/27 08:43:09;;;;;;;;;;;;;;;11.04;100.00;102590.09;5079265;28;19920;-75
2022/04/27 08:45:37;;;;;;;;;;;;;;;11.15;100.00;102611.84;5076818;28;19931;-76
2022/04/27 08:48:03;;;;;;;;;;;;;;;11.01;100.00;102595.16;5070359;28;20003;-75
2022/04/27 08:50:30;;;;;;;;;;;;;;;11.26;100.00;102604.59;5089043;28;20034;-75
2022/04/27 08:52:55;;;;;;;;;;;;;;;11.40;100.00;102589.59;5073701;28;19920;-76
2022/04/27 08:55:23;;;;;;;;;;;;;;;11.26;100.00;102607.22;5083357;28;19943;-77
2022/04/27 08:57:48;;;;;;;;;;;;;;;11.37;100.00;102585.03;5058641;28;20599;-73
2022/04/27 09:00:18;;;;;;;;;;;;;;;11.55;100.00;102589.63;5073640;28;19922;-73
2022/04/27 09:02:45;;;;;;;;;;;;;;;11.25;100.00;102605.44;5091742;28;19924;-77
2022/04/27 09:05:14;;;;;;;;;;;;;;;11.55;100.00;102573.78;5090321;28;19919;-77
2022/04/27 09:07:42;;;;;;;;;;;;;;;11.05;100.00;102572.56;5092440;28;19981;-75
2022/04/27 09:10:09;;;;;;;;;;;;;;;11.17;100.00;102572.38;5088690;28;19927;-73
2022/04/27 09:12:43;;;;;;;;;;;;;;;11.16;100.00;102584.66;5093880;28;19927;-75
2022/04/27 09:15:08;;;;;;;;;;;;;;;11.22;100.00;102605.25;5091615;28;20173;-75
2022/04/27 09:23:04;;;;;;;;;;;;;;;11.02;100.00;102622.47;5115708;28;19922;-75
2022/04/27 09:25:32;;;;;;;;;;;;;;;10.92;100.00;102610.41;5081072;28;19920;-74
2022/04/27 09:27:59;;;;;;;;;;;;;;;10.81;100.00;102603.56;5073384;28;20550;-74
2022/04/27 09:30:27;;;;;;;;;;;;;;;10.81;100.00;102599.19;5114885;28;20052;-74
2022/04/27 09:32:57;;;;;;;;;;;;;;;10.84;100.00;102591.47;5115545;28;19918;-74
2022/04/27 09:35:34;;;;;;;;;;;;;;;10.98;100.00;102572.97;5113829;28;20406;-75
2022/04/27 09:38:12;;;;;;;;;;;;;;;11.28;100.00;102595.06;5113964;28;19945;-76
2022/04/27 09:40:44;;;;;;;;;;;;;;;11.30;100.00;102590.78;5115306;28;20375;-75
2022/04/27 09:43:37;;;;;;;;;;;;;;;11.34;100.00;102600.69;5114013;28;20410;-77
2022/04/27 09:46:15;;;;;;;;;;;;;;;11.70;100.00;102565.84;5114878;28;19916;-76
2022/04/27 09:48:40;;;;;;;;;;;;;;;11.89;100.00;102587.25;5114691;28;20018;-76
2022/04/27 09:51:11;;;;;;;;;;;;;;;12.05;100.00;102633.06;5114547;28;20015;-76
2022/04/27 09:53:37;;;;;;;;;;;;;;;11.97;100.00;102645.81;5114468;28;19915;-77
2022/04/27 09:56:03;;;;;;;;;;;;;;;12.34;100.00;102614.50;5113847;28;20049;-75
2022/04/27 09:58:29;;;;;;;;;;;;;;;12.28;100.00;102630.00;5114574;28;20321;-76
2022/04/27 10:00:57;;;;;;;;;;;;;;;12.56;100.00;102626.28;5113762;28;19920;-77
2022/04/27 10:03:24;;;;;;;;;;;;;;;12.82;100.00;102637.38;5114019;28;19916;-76
2022/04/27 10:05:49;;;;;;;;;;;;;;;12.70;100.00;102651.75;5114369;28;19961;-77
2022/04/27 10:08:17;;;;;;;;;;;;;;;12.80;100.00;102670.78;5114539;28;19943;-75
2022/04/27 10:10:45;;;;;;;;;;;;;;;12.73;100.00;102666.88;5114910;28;19961;-76
2022/04/27 10:13:15;;;;;;;;;;;;;;;12.17;100.00;102652.25;5114315;28;20275;-75
2022/04/27 10:15:44;;;;;;;;;;;;;;;11.88;100.00;102629.38;5114413;28;19923;-76
2022/04/27 10:18:11;;;;;;;;;;;;;;;11.92;100.00;102613.84;5114346;28;20299;-77
2022/04/27 10:20:36;;;;;;;;;;;;;;;12.39;100.00;102615.66;5114586;28;19926;-76
2022/04/27 10:23:21;;;;;;;;;;;;;;;12.49;100.00;102629.41;5115254;28;19941;-76
2022/04/27 10:26:05;;;;;;;;;;;;;;;12.56;100.00;102627.19;5114230;28;20383;-77
2022/04/27 10:28:34;;;;;;;;;;;;;;;12.33;100.00;102643.47;5114175;28;20022;-76
2022/04/27 10:31:01;;;;;;;;;;;;;;;12.44;100.00;102637.06;5115337;28;20465;-77
2022/04/27 10:33:45;;;;;;;;;;;;;;;12.57;100.00;102623.75;5114070;28;19923;-75
2022/04/27 10:36:29;;;;;;;;;;;;;;;12.37;100.00;102649.03;5113308;28;19916;-76
2022/04/27 10:39:15;;;;;;;;;;;;;;;12.65;100.00;102632.09;5112257;28;19916;-75
2022/04/27 10:41:59;;;;;;;;;;;;;;;12.87;100.00;102636.84;5096204;28;19932;-76
2022/04/27 10:44:44;;;;;;;;;;;;;;;12.89;100.00;102651.03;5087406;28;19923;-76
2022/04/27 10:47:18;;;;;;;;;;;;;;;13.24;100.00;102646.78;5093609;28;19920;-76
2022/04/27 10:49:43;;;;;;;;;;;;;;;12.92;100.00;102664.44;5093288;28;19920;-76
2022/04/27 10:52:10;;;;;;;;;;;;;;;12.79;100.00;102659.31;5091900;28;19977;-75
2022/04/27 10:54:39;;;;;;;;;;;;;;;13.02;100.00;102638.50;5092683;28;19920;-76
2022/04/27 10:57:16;;;;;;;;;;;;;;;12.70;100.00;102650.84;5092513;28;19912;-75
2022/04/27 10:59:42;;;;;;;;;;;;;;;12.73;100.00;102646.63;5093770;28;19923;-75
2022/04/27 11:02:27;;;;;;;;;;;;;;;12.64;100.00;102666.38;5093456;28;19916;-75
2022/04/27 11:04:54;;;;;;;;;;;;;;;12.50;100.00;102641.81;5091905;28;19962;-76
2022/04/27 11:07:29;;;;;;;;;;;;;;;13.02;100.00;102643.78;5075234;28;20007;-75
2022/04/27 11:10:01;;;;;;;;;;;;;;;12.81;100.00;102670.88;5092486;28;19942;-76
2022/04/27 11:12:27;;;;;;;;;;;;;;;12.64;100.00;102672.56;5092600;28;19912;-75
2022/04/27 11:15:03;;;;;;;;;;;;;;;13.18;100.00;102659.66;5090923;28;19951;-75
2022/04/27 11:17:29;;;;;;;;;;;;;;;13.24;100.00;102665.28;5091484;28;19912;-75
2022/04/27 11:19:54;;;;;;;;;;;;;;;13.28;100.00;102680.50;5091518;28;20449;-75
2022/04/27 11:22:20;;;;;;;;;;;;;;;12.76;100.00;102688.22;5092861;28;19922;-74
2022/04/27 11:24:49;;;;;;;;;;;;;;;12.87;100.00;102687.06;5091958;28;19920;-74
2022/04/27 11:27:26;;;;;;;;;;;;;;;13.05;100.00;102687.19;5091484;28;19965;-74
2022/04/27 11:29:51;;;;;;;;;;;;;;;12.96;100.00;102688.41;5091548;28;20022;-75
2022/04/27 11:32:17;;;;;;;;;;;;;;;13.12;100.00;102693.72;5074900;28;19924;-76
2022/04/27 11:34:46;;;;;;;;;;;;;;;12.89;100.00;102687.16;5092918;28;19916;-77
2022/04/27 11:37:13;;;;;;;;;;;;;;;13.29;100.00;102682.31;5092557;28;20030;-77
2022/04/27 11:39:39;;;;;;;;;;;;;;;12.73;100.00;102693.31;5091644;28;20372;-75
2022/04/27 11:42:04;;;;;;;;;;;;;;;13.32;100.00;102689.50;5091092;28;20066;-76
2022/04/27 11:44:34;;;;;;;;;;;;;;;13.90;100.00;102669.63;5092366;28;19916;-78
2022/04/27 11:47:00;;;;;;;;;;;;;;;13.93;100.00;102681.28;5092285;28;19912;-77
2022/04/27 11:49:25;;;;;;;;;;;;;;;14.83;100.00;102689.28;5091905;28;19969;-77
2022/04/27 11:51:50;;;;;;;;;;;;;;;14.82;100.00;102703.41;5074948;28;19939;-78
2022/04/27 11:54:28;;;;;;;;;;;;;;;14.03;100.00;102708.22;5092075;28;19916;-74
2022/04/27 11:56:56;;;;;;;;;;;;;;;13.64;100.00;102701.88;5092406;28;19916;-76
2022/04/27 11:59:21;;;;;;;;;;;;;;;13.62;100.00;102706.16;5093395;28;19962;-79
2022/04/27 12:01:50;;;;;;;;;;;;;;;13.86;100.00;102695.06;5091283;28;20540;-76
2022/04/27 12:04:16;;;;;;;;;;;;;;;13.72;100.00;102709.28;5074712;28;19924;-77
2022/04/27 12:06:41;;;;;;;;;;;;;;;13.16;100.00;102687.78;5091778;28;19916;-76
2022/04/27 12:09:07;;;;;;;;;;;;;;;13.08;100.00;102699.66;5091807;28;19923;-77
2022/04/27 12:11:32;;;;;;;;;;;;;;;13.14;100.00;102684.13;5093119;28;19923;-77
2022/04/27 12:14:04;;;;;;;;;;;;;;;12.83;100.00;102706.22;5091605;28;19916;-77
2022/04/27 12:16:30;;;;;;;;;;;;;;;12.65;100.00;102692.00;5092019;28;19923;-77
2022/04/27 12:18:55;;;;;;;;;;;;;;;13.18;100.00;102686.13;5091767;28;19916;-78
2022/04/27 12:21:24;;;;;;;;;;;;;;;13.45;100.00;102669.94;5091943;28;20378;-77
2022/04/27 12:23:51;;;;;;;;;;;;;;;12.74;100.00;102690.75;5092139;28;19920;-77
2022/04/27 12:26:38;;;;;;;;;;;;;;;13.27;100.00;102681.34;5091432;28;20292;-73
2022/04/27 12:29:07;;;;;;;;;;;;;;;13.21;100.00;102699.50;5090210;28;19932;-78
2022/04/27 12:31:34;;;;;;;;;;;;;;;13.40;100.00;102660.84;5093035;28;19923;-77
2022/04/27 12:34:02;;;;;;;;;;;;;;;13.34;100.00;102652.59;5092483;28;19923;-78
2022/04/27 12:39:23;;;;;;;;;;;;;;;13.60;100.00;102649.56;5092834;28;19919;-77
2022/04/27 12:41:49;;;;;;;;;;;;;;;13.72;100.00;102646.69;5091216;28;19916;-77
2022/04/27 12:44:15;;;;;;;;;;;;;;;14.18;100.00;102663.97;5091245;28;20424;-78
2022/04/27 12:46:54;;;;;;;;;;;;;;;14.21;100.00;102658.84;5074851;28;19989;-77
2022/04/27 12:49:30;;;;;;;;;;;;;;;14.09;100.00;102661.81;5091650;28;19916;-75
2022/04/27 12:51:57;;;;;;;;;;;;;;;14.14;100.00;102654.97;5088423;28;20015;-75